sensor_id;sensor_type;location;lat;lon;timestamp;temperature;humidity
5870;DHT22;2961;47.702;9.410;2024-03-07T00:00:32;3.60;99.90
5870;DHT22;2961;47.702;9.410;2024-03-07T00:02:59;3.60;99.90
5870;DHT22;2961;47.702;9.410;2024-03-07T00:05:26;3.60;99.90
5870;DHT22;2961;47.702;9.410;2024-03-07T00:07:53;3.60;99.90
5870;DHT22;2961;47.702;9.410;2024-03-07T00:10:20;3.60;99.90
5870;DHT22;2961;47.702;9.410;2024-03-07T00:12:50;3.70;99.90
5870;DHT22;2961;47.702;9.410;2024-03-07T00:15:16;3.70;99.90
5870;DHT22;2961;47.702;9.410;2024-03-07T00:17:44;3.70;99.90
5870;DHT22;2961;47.702;9.410;2024-03-07T00:20:11;3.70;99.90
5870;DHT22;2961;47.702;9.410;2024-03-07T00:22:40;3.60;99.90
5870;DHT22;2961;47.702;9.410;2024-03-07T00:25:08;3.60;99.90
5870;DHT22;2961;47.702;9.410;2024-03-07T00:27:36;3.60;99.90
5870;DHT22;2961;47.702;9.410;2024-03-07T00:30:06;3.50;99.90
5870;DHT22;2961;47.702;9.410;2024-03-07T00:32:34;3.50;99.90
5870;DHT22;2961;47.702;9.410;2024-03-07T00:35:05;3.50;99.90
5870;DHT22;2961;47.702;9.410;2024-03-07T00:37:34;3.50;99.90
5870;DHT22;2961;47.702;9.410;2024-03-07T00:40:01;3.50;99.90
5870;DHT22;2961;47.702;9.410;2024-03-07T00:42:28;3.50;99.90
5870;DHT22;2961;47.702;9.410;2024-03-07T00:44:56;3.50;99.90
5870;DHT22;2961;47.702;9.410;2024-03-07T00:47:25;3.50;99.90
5870;DHT22;2961;47.702;9.410;2024-03-07T00:49:51;3.50;99.90
5870;DHT22;2961;47.702;9.410;2024-03-07T00:52:19;3.50;99.90
5870;DHT22;2961;47.702;9.410;2024-03-07T00:54:46;3.50;99.90
5870;DHT22;2961;47.702;9.410;2024-03-07T00:57:13;3.50;99.90
5870;DHT22;2961;47.702;9.410;2024-03-07T00:59:40;3.50;99.90
5870;DHT22;2961;47.702;9.410;2024-03-07T01:02:07;3.50;99.90
5870;DHT22;2961;47.702;9.410;2024-03-07T01:04:35;3.50;99.90
5870;DHT22;2961;47.702;9.410;2024-03-07T01:07:01;3.50;99.90
5870;DHT22;2961;47.702;9.410;2024-03-07T01:09:29;3.60;99.90
5870;DHT22;2961;47.702;9.410;2024-03-07T01:11:55;3.60;99.90
5870;DHT22;2961;47.702;9.410;2024-03-07T01:14:22;3.60;99.90
5870;DHT22;2961;47.702;9.410;2024-03-07T01:16:49;3.60;99.90
5870;DHT22;2961;47.702;9.410;2024-03-07T01:19:16;3.60;99.90
5870;DHT22;2961;47.702;9.410;2024-03-07T01:21:44;3.60;99.90
5870;DHT22;2961;47.702;9.410;2024-03-07T01:24:11;3.60;99.90
5870;DHT22;2961;47.702;9.410;2024-03-07T01:26:38;3.60;99.90
5870;DHT22;2961;47.702;9.410;2024-03-07T01:29:04;3.60;99.90
5870;DHT22;2961;47.702;9.410;2024-03-07T01:31:32;3.60;99.90
5870;DHT22;2961;47.702;9.410;2024-03-07T01:33:59;3.50;99.90
5870;DHT22;2961;47.702;9.410;2024-03-07T01:36:26;3.50;99.90
5870;DHT22;2961;47.702;9.410;2024-03-07T01:38:54;3.50;99.90
5870;DHT22;2961;47.702;9.410;2024-03-07T01:41:21;3.50;99.90
5870;DHT22;2961;47.702;9.410;2024-03-07T01:43:48;3.50;99.90
5870;DHT22;2961;47.702;9.410;2024-03-07T01:46:15;3.50;99.90
5870;DHT22;2961;47.702;9.410;2024-03-07T01:48:42;3.50;99.90
5870;DHT22;2961;47.702;9.410;2024-03-07T01:51:09;3.50;99.90
5870;DHT22;2961;47.702;9.410;2024-03-07T01:53:36;3.40;99.90
5870;DHT22;2961;47.702;9.410;2024-03-07T01:56:04;3.30;99.90
5870;DHT22;2961;47.702;9.410;2024-03-07T01:58:32;3.40;99.90
5870;DHT22;2961;47.702;9.410;2024-03-07T02:00:59;3.40;99.90
5870;DHT22;2961;47.702;9.410;2024-03-07T02:03:26;3.40;99.90
5870;DHT22;2961;47.702;9.410;2024-03-07T02:05:53;3.40;99.90
5870;DHT22;2961;47.702;9.410;2024-03-07T02:08:20;3.30;99.90
5870;DHT22;2961;47.702;9.410;2024-03-07T02:10:47;3.30;99.90
5870;DHT22;2961;47.702;9.410;2024-03-07T02:13:15;3.30;99.90
5870;DHT22;2961;47.702;9.410;2024-03-07T02:15:43;3.20;99.90
5870;DHT22;2961;47.702;9.410;2024-03-07T02:18:09;3.20;99.90
5870;DHT22;2961;47.702;9.410;2024-03-07T02:20:36;3.30;99.90
5870;DHT22;2961;47.702;9.410;2024-03-07T02:23:05;3.30;99.90
5870;DHT22;2961;47.702;9.410;2024-03-07T02:25:31;3.40;99.90
5870;DHT22;2961;47.702;9.410;2024-03-07T02:28:03;3.40;99.90
5870;DHT22;2961;47.702;9.410;2024-03-07T02:30:30;3.40;99.90
5870;DHT22;2961;47.702;9.410;2024-03-07T02:32:57;3.40;99.90
5870;DHT22;2961;47.702;9.410;2024-03-07T02:35:32;3.40;99.90
5870;DHT22;2961;47.702;9.410;2024-03-07T02:37:59;3.40;99.90
5870;DHT22;2961;47.702;9.410;2024-03-07T02:40:27;3.40;99.90
5870;DHT22;2961;47.702;9.410;2024-03-07T02:42:52;3.40;99.90
5870;DHT22;2961;47.702;9.410;2024-03-07T02:45:19;3.40;99.90
5870;DHT22;2961;47.702;9.410;2024-03-07T02:47:46;3.40;99.90
5870;DHT22;2961;47.702;9.410;2024-03-07T02:50:13;3.40;99.90
5870;DHT22;2961;47.702;9.410;2024-03-07T02:52:40;3.40;99.90
5870;DHT22;2961;47.702;9.410;2024-03-07T02:55:08;3.40;99.90
5870;DHT22;2961;47.702;9.410;2024-03-07T02:57:37;3.40;99.90
5870;DHT22;2961;47.702;9.410;2024-03-07T03:00:05;3.40;99.90
5870;DHT22;2961;47.702;9.410;2024-03-07T03:02:39;3.40;99.90
5870;DHT22;2961;47.702;9.410;2024-03-07T03:05:07;3.30;99.90
5870;DHT22;2961;47.702;9.410;2024-03-07T03:07:38;3.30;99.90
5870;DHT22;2961;47.702;9.410;2024-03-07T03:10:06;3.30;99.90
5870;DHT22;2961;47.702;9.410;2024-03-07T03:12:36;3.40;99.90
5870;DHT22;2961;47.702;9.410;2024-03-07T03:15:04;3.30;99.90
5870;DHT22;2961;47.702;9.410;2024-03-07T03:17:31;3.40;99.90
5870;DHT22;2961;47.702;9.410;2024-03-07T03:19:57;3.40;99.90
5870;DHT22;2961;47.702;9.410;2024-03-07T03:22:25;3.30;99.90
5870;DHT22;2961;47.702;9.410;2024-03-07T03:24:52;3.30;99.90
5870;DHT22;2961;47.702;9.410;2024-03-07T03:27:21;3.30;99.90
5870;DHT22;2961;47.702;9.410;2024-03-07T03:29:49;3.30;99.90
5870;DHT22;2961;47.702;9.410;2024-03-07T03:32:17;3.30;99.90
5870;DHT22;2961;47.702;9.410;2024-03-07T03:34:43;3.30;99.90
5870;DHT22;2961;47.702;9.410;2024-03-07T03:37:10;3.30;99.90
5870;DHT22;2961;47.702;9.410;2024-03-07T03:39:37;3.30;99.90
5870;DHT22;2961;47.702;9.410;2024-03-07T03:42:04;3.30;99.90
5870;DHT22;2961;47.702;9.410;2024-03-07T03:44:32;3.40;99.90
5870;DHT22;2961;47.702;9.410;2024-03-07T03:47:01;3.40;99.90
5870;DHT22;2961;47.702;9.410;2024-03-07T03:49:29;3.40;99.90
5870;DHT22;2961;47.702;9.410;2024-03-07T03:51:56;3.40;99.90
5870;DHT22;2961;47.702;9.410;2024-03-07T03:54:25;3.40;99.90
5870;DHT22;2961;47.702;9.410;2024-03-07T03:56:52;3.40;99.90
5870;DHT22;2961;47.702;9.410;2024-03-07T03:59:18;3.40;99.90
5870;DHT22;2961;47.702;9.410;2024-03-07T04:01:45;3.30;99.90
5870;DHT22;2961;47.702;9.410;2024-03-07T04:04:15;3.30;99.90
5870;DHT22;2961;47.702;9.410;2024-03-07T04:06:41;3.30;99.90
5870;DHT22;2961;47.702;9.410;2024-03-07T04:09:08;3.30;99.90
5870;DHT22;2961;47.702;9.410;2024-03-07T04:11:35;3.30;99.90
5870;DHT22;2961;47.702;9.410;2024-03-07T04:14:02;3.30;99.90
5870;DHT22;2961;47.702;9.410;2024-03-07T04:16:29;3.40;99.90
5870;DHT22;2961;47.702;9.410;2024-03-07T04:18:56;3.30;99.90
5870;DHT22;2961;47.702;9.410;2024-03-07T04:21:24;3.30;99.90
5870;DHT22;2961;47.702;9.410;2024-03-07T04:23:51;3.30;99.90
5870;DHT22;2961;47.702;9.410;2024-03-07T04:26:18;3.30;99.90
5870;DHT22;2961;47.702;9.410;2024-03-07T04:28:45;3.30;99.90
5870;DHT22;2961;47.702;9.410;2024-03-07T04:31:13;3.30;99.90
5870;DHT22;2961;47.702;9.410;2024-03-07T04:33:40;3.30;99.90
5870;DHT22;2961;47.702;9.410;2024-03-07T04:36:07;3.30;99.90
5870;DHT22;2961;47.702;9.410;2024-03-07T04:38:35;3.40;99.90
5870;DHT22;2961;47.702;9.410;2024-03-07T04:41:03;3.30;99.90
5870;DHT22;2961;47.702;9.410;2024-03-07T04:43:30;3.40;99.90
5870;DHT22;2961;47.702;9.410;2024-03-07T04:45:58;3.40;99.90
5870;DHT22;2961;47.702;9.410;2024-03-07T04:48:25;3.30;99.90
5870;DHT22;2961;47.702;9.410;2024-03-07T04:50:52;3.40;99.90
5870;DHT22;2961;47.702;9.410;2024-03-07T04:53:18;3.40;99.90
5870;DHT22;2961;47.702;9.410;2024-03-07T04:55:47;3.30;99.90
5870;DHT22;2961;47.702;9.410;2024-03-07T04:58:13;3.40;99.90
5870;DHT22;2961;47.702;9.410;2024-03-07T05:00:40;3.40;99.90
5870;DHT22;2961;47.702;9.410;2024-03-07T05:03:07;3.40;99.90
5870;DHT22;2961;47.702;9.410;2024-03-07T05:05:35;3.50;99.90
5870;DHT22;2961;47.702;9.410;2024-03-07T05:08:02;3.50;99.90
5870;DHT22;2961;47.702;9.410;2024-03-07T05:10:29;3.50;99.90
5870;DHT22;2961;47.702;9.410;2024-03-07T05:12:57;3.50;99.90
5870;DHT22;2961;47.702;9.410;2024-03-07T05:15:25;3.40;99.90
5870;DHT22;2961;47.702;9.410;2024-03-07T05:17:52;3.50;99.90
5870;DHT22;2961;47.702;9.410;2024-03-07T05:20:19;3.50;99.90
5870;DHT22;2961;47.702;9.410;2024-03-07T05:22:46;3.40;99.90
5870;DHT22;2961;47.702;9.410;2024-03-07T05:25:15;3.40;99.90
5870;DHT22;2961;47.702;9.410;2024-03-07T05:27:44;3.40;99.90
5870;DHT22;2961;47.702;9.410;2024-03-07T05:30:12;3.40;99.90
5870;DHT22;2961;47.702;9.410;2024-03-07T05:32:40;3.40;99.90
5870;DHT22;2961;47.702;9.410;2024-03-07T05:35:08;3.40;99.90
5870;DHT22;2961;47.702;9.410;2024-03-07T05:37:36;3.40;99.90
5870;DHT22;2961;47.702;9.410;2024-03-07T05:40:08;3.40;99.90
5870;DHT22;2961;47.702;9.410;2024-03-07T05:42:34;3.50;99.90
5870;DHT22;2961;47.702;9.410;2024-03-07T05:45:01;3.50;99.90
5870;DHT22;2961;47.702;9.410;2024-03-07T05:47:30;3.60;99.90
5870;DHT22;2961;47.702;9.410;2024-03-07T05:49:57;3.60;99.90
5870;DHT22;2961;47.702;9.410;2024-03-07T05:52:23;3.60;99.90
5870;DHT22;2961;47.702;9.410;2024-03-07T05:54:50;3.60;99.90
5870;DHT22;2961;47.702;9.410;2024-03-07T05:57:17;3.50;99.90
5870;DHT22;2961;47.702;9.410;2024-03-07T05:59:44;3.40;99.90
5870;DHT22;2961;47.702;9.410;2024-03-07T06:02:12;3.40;99.90
5870;DHT22;2961;47.702;9.410;2024-03-07T06:04:42;3.40;99.90
5870;DHT22;2961;47.702;9.410;2024-03-07T06:07:09;3.50;99.90
5870;DHT22;2961;47.702;9.410;2024-03-07T06:09:37;3.50;99.90
5870;DHT22;2961;47.702;9.410;2024-03-07T06:12:04;3.50;99.90
5870;DHT22;2961;47.702;9.410;2024-03-07T06:14:34;3.50;99.90
5870;DHT22;2961;47.702;9.410;2024-03-07T06:17:01;3.50;99.90
5870;DHT22;2961;47.702;9.410;2024-03-07T06:19:27;3.40;99.90
5870;DHT22;2961;47.702;9.410;2024-03-07T06:21:57;3.40;99.90
5870;DHT22;2961;47.702;9.410;2024-03-07T06:24:24;3.40;99.90
5870;DHT22;2961;47.702;9.410;2024-03-07T06:26:53;3.50;99.90
5870;DHT22;2961;47.702;9.410;2024-03-07T06:29:26;3.50;99.90
5870;DHT22;2961;47.702;9.410;2024-03-07T06:31:54;3.60;99.90
5870;DHT22;2961;47.702;9.410;2024-03-07T06:34:21;3.60;99.90
5870;DHT22;2961;47.702;9.410;2024-03-07T06:36:48;3.60;99.90
5870;DHT22;2961;47.702;9.410;2024-03-07T06:39:16;3.50;99.90
5870;DHT22;2961;47.702;9.410;2024-03-07T06:41:46;3.50;99.90
5870;DHT22;2961;47.702;9.410;2024-03-07T06:44:13;3.60;99.90
5870;DHT22;2961;47.702;9.410;2024-03-07T06:46:39;3.60;99.90
5870;DHT22;2961;47.702;9.410;2024-03-07T06:49:06;3.60;99.90
5870;DHT22;2961;47.702;9.410;2024-03-07T06:51:35;3.50;99.90
5870;DHT22;2961;47.702;9.410;2024-03-07T06:54:02;3.60;99.90
5870;DHT22;2961;47.702;9.410;2024-03-07T06:56:32;3.70;99.90
5870;DHT22;2961;47.702;9.410;2024-03-07T06:58:59;3.70;99.90
5870;DHT22;2961;47.702;9.410;2024-03-07T07:01:29;3.70;99.90
5870;DHT22;2961;47.702;9.410;2024-03-07T07:03:56;3.70;99.90
5870;DHT22;2961;47.702;9.410;2024-03-07T07:06:24;3.70;99.90
5870;DHT22;2961;47.702;9.410;2024-03-07T07:08:51;3.70;99.90
5870;DHT22;2961;47.702;9.410;2024-03-07T07:11:18;3.90;99.90
5870;DHT22;2961;47.702;9.410;2024-03-07T07:13:46;4.00;99.90
5870;DHT22;2961;47.702;9.410;2024-03-07T07:16:13;4.10;99.90
5870;DHT22;2961;47.702;9.410;2024-03-07T07:18:40;4.20;99.90
5870;DHT22;2961;47.702;9.410;2024-03-07T07:21:08;4.20;99.90
5870;DHT22;2961;47.702;9.410;2024-03-07T07:23:36;4.30;99.90
5870;DHT22;2961;47.702;9.410;2024-03-07T07:26:03;4.50;99.90
5870;DHT22;2961;47.702;9.410;2024-03-07T07:28:31;4.50;99.90
5870;DHT22;2961;47.702;9.410;2024-03-07T07:31:00;4.70;99.90
5870;DHT22;2961;47.702;9.410;2024-03-07T07:33:26;4.80;99.90
5870;DHT22;2961;47.702;9.410;2024-03-07T07:35:53;4.90;99.90
5870;DHT22;2961;47.702;9.410;2024-03-07T07:38:20;4.90;99.90
5870;DHT22;2961;47.702;9.410;2024-03-07T07:40:47;4.90;99.90
5870;DHT22;2961;47.702;9.410;2024-03-07T07:43:15;4.90;99.90
5870;DHT22;2961;47.702;9.410;2024-03-07T07:45:42;4.90;99.90
5870;DHT22;2961;47.702;9.410;2024-03-07T07:48:10;4.90;99.90
5870;DHT22;2961;47.702;9.410;2024-03-07T07:50:37;4.90;99.90
5870;DHT22;2961;47.702;9.410;2024-03-07T07:53:04;4.90;99.90
5870;DHT22;2961;47.702;9.410;2024-03-07T07:55:34;4.90;99.90
5870;DHT22;2961;47.702;9.410;2024-03-07T07:58:01;4.90;99.90
5870;DHT22;2961;47.702;9.410;2024-03-07T08:00:30;4.90;99.90
5870;DHT22;2961;47.702;9.410;2024-03-07T08:02:59;4.90;99.90
5870;DHT22;2961;47.702;9.410;2024-03-07T08:05:28;4.90;99.90
5870;DHT22;2961;47.702;9.410;2024-03-07T08:07:56;5.00;99.90
5870;DHT22;2961;47.702;9.410;2024-03-07T08:10:25;5.00;99.90
5870;DHT22;2961;47.702;9.410;2024-03-07T08:12:54;5.10;99.90
5870;DHT22;2961;47.702;9.410;2024-03-07T08:15:21;5.20;99.90
5870;DHT22;2961;47.702;9.410;2024-03-07T08:17:49;5.20;99.90
5870;DHT22;2961;47.702;9.410;2024-03-07T08:20:18;5.20;99.90
5870;DHT22;2961;47.702;9.410;2024-03-07T08:22:48;5.10;99.90
5870;DHT22;2961;47.702;9.410;2024-03-07T08:25:17;5.20;99.90
5870;DHT22;2961;47.702;9.410;2024-03-07T08:27:45;5.20;99.90
5870;DHT22;2961;47.702;9.410;2024-03-07T08:30:12;5.20;99.90
5870;DHT22;2961;47.702;9.410;2024-03-07T08:32:40;5.20;99.90
5870;DHT22;2961;47.702;9.410;2024-03-07T08:35:07;5.20;99.90
5870;DHT22;2961;47.702;9.410;2024-03-07T08:37:36;5.30;99.90
5870;DHT22;2961;47.702;9.410;2024-03-07T08:40:06;5.30;99.90
5870;DHT22;2961;47.702;9.410;2024-03-07T08:42:35;5.30;99.90
5870;DHT22;2961;47.702;9.410;2024-03-07T08:45:04;5.40;99.90
5870;DHT22;2961;47.702;9.410;2024-03-07T08:47:31;5.40;99.90
5870;DHT22;2961;47.702;9.410;2024-03-07T08:49:58;5.50;99.90
5870;DHT22;2961;47.702;9.410;2024-03-07T08:52:25;5.50;99.90
5870;DHT22;2961;47.702;9.410;2024-03-07T08:54:53;5.60;99.90
5870;DHT22;2961;47.702;9.410;2024-03-07T08:57:21;5.50;99.90
5870;DHT22;2961;47.702;9.410;2024-03-07T08:59:48;5.50;99.90
5870;DHT22;2961;47.702;9.410;2024-03-07T09:02:15;5.50;99.90
5870;DHT22;2961;47.702;9.410;2024-03-07T09:04:42;5.50;99.90
5870;DHT22;2961;47.702;9.410;2024-03-07T09:07:09;5.60;99.90
5870;DHT22;2961;47.702;9.410;2024-03-07T09:09:36;5.70;99.90
5870;DHT22;2961;47.702;9.410;2024-03-07T09:12:03;5.90;99.90
5870;DHT22;2961;47.702;9.410;2024-03-07T09:14:32;5.80;99.90
5870;DHT22;2961;47.702;9.410;2024-03-07T09:16:58;5.80;99.90
5870;DHT22;2961;47.702;9.410;2024-03-07T09:19:25;5.90;99.90
5870;DHT22;2961;47.702;9.410;2024-03-07T09:21:53;5.90;99.90
5870;DHT22;2961;47.702;9.410;2024-03-07T09:24:20;6.00;99.90
5870;DHT22;2961;47.702;9.410;2024-03-07T09:26:48;6.00;99.90
5870;DHT22;2961;47.702;9.410;2024-03-07T09:29:15;5.90;99.90
5870;DHT22;2961;47.702;9.410;2024-03-07T09:31:43;6.00;99.90
5870;DHT22;2961;47.702;9.410;2024-03-07T09:34:10;6.00;99.90
5870;DHT22;2961;47.702;9.410;2024-03-07T09:36:38;5.90;99.90
5870;DHT22;2961;47.702;9.410;2024-03-07T09:39:04;5.90;99.90
5870;DHT22;2961;47.702;9.410;2024-03-07T09:41:32;5.90;99.90
5870;DHT22;2961;47.702;9.410;2024-03-07T09:44:00;5.80;99.90
5870;DHT22;2961;47.702;9.410;2024-03-07T09:46:28;5.80;99.90
5870;DHT22;2961;47.702;9.410;2024-03-07T09:48:57;5.90;99.90
5870;DHT22;2961;47.702;9.410;2024-03-07T09:51:24;5.90;99.90
5870;DHT22;2961;47.702;9.410;2024-03-07T09:53:53;6.00;99.90
5870;DHT22;2961;47.702;9.410;2024-03-07T09:56:24;6.00;99.90
5870;DHT22;2961;47.702;9.410;2024-03-07T09:58:57;5.90;99.90
5870;DHT22;2961;47.702;9.410;2024-03-07T10:01:26;5.90;99.90
5870;DHT22;2961;47.702;9.410;2024-03-07T10:04:01;6.10;99.90
5870;DHT22;2961;47.702;9.410;2024-03-07T10:06:35;6.30;99.90
5870;DHT22;2961;47.702;9.410;2024-03-07T10:09:02;6.40;99.90
5870;DHT22;2961;47.702;9.410;2024-03-07T10:11:30;6.40;99.90
5870;DHT22;2961;47.702;9.410;2024-03-07T10:13:57;6.40;99.90
5870;DHT22;2961;47.702;9.410;2024-03-07T10:16:24;6.50;99.90
5870;DHT22;2961;47.702;9.410;2024-03-07T10:18:51;6.50;99.90
5870;DHT22;2961;47.702;9.410;2024-03-07T10:21:20;6.60;99.90
5870;DHT22;2961;47.702;9.410;2024-03-07T10:23:49;6.70;99.90
5870;DHT22;2961;47.702;9.410;2024-03-07T10:26:17;6.70;99.90
5870;DHT22;2961;47.702;9.410;2024-03-07T10:28:45;6.70;99.90
5870;DHT22;2961;47.702;9.410;2024-03-07T10:31:27;6.60;99.90
5870;DHT22;2961;47.702;9.410;2024-03-07T10:33:58;6.70;99.90
5870;DHT22;2961;47.702;9.410;2024-03-07T10:36:27;6.70;99.90
5870;DHT22;2961;47.702;9.410;2024-03-07T10:38:56;6.80;99.90
5870;DHT22;2961;47.702;9.410;2024-03-07T10:41:24;6.90;99.90
5870;DHT22;2961;47.702;9.410;2024-03-07T10:43:57;7.10;99.90
5870;DHT22;2961;47.702;9.410;2024-03-07T10:46:25;7.20;99.90
5870;DHT22;2961;47.702;9.410;2024-03-07T10:48:54;7.30;99.90
5870;DHT22;2961;47.702;9.410;2024-03-07T10:51:29;7.50;99.90
5870;DHT22;2961;47.702;9.410;2024-03-07T10:54:07;7.30;99.90
5870;DHT22;2961;47.702;9.410;2024-03-07T10:56:47;7.30;99.90
5870;DHT22;2961;47.702;9.410;2024-03-07T10:59:22;7.00;99.90
5870;DHT22;2961;47.702;9.410;2024-03-07T11:01:59;6.80;99.90
5870;DHT22;2961;47.702;9.410;2024-03-07T11:04:26;6.70;99.90
5870;DHT22;2961;47.702;9.410;2024-03-07T11:06:55;6.60;99.90
5870;DHT22;2961;47.702;9.410;2024-03-07T11:09:25;6.60;99.90
5870;DHT22;2961;47.702;9.410;2024-03-07T11:11:55;6.70;99.90
5870;DHT22;2961;47.702;9.410;2024-03-07T11:14:23;6.70;99.90
5870;DHT22;2961;47.702;9.410;2024-03-07T11:16:51;6.80;99.90
5870;DHT22;2961;47.702;9.410;2024-03-07T11:19:24;6.70;99.90
5870;DHT22;2961;47.702;9.410;2024-03-07T11:21:53;6.80;99.90
5870;DHT22;2961;47.702;9.410;2024-03-07T11:24:26;6.80;99.90
5870;DHT22;2961;47.702;9.410;2024-03-07T11:26:56;6.90;99.90
5870;DHT22;2961;47.702;9.410;2024-03-07T11:29:43;7.00;99.90
5870;DHT22;2961;47.702;9.410;2024-03-07T11:32:10;7.00;99.90
5870;DHT22;2961;47.702;9.410;2024-03-07T11:34:39;6.90;99.90
5870;DHT22;2961;47.702;9.410;2024-03-07T11:37:08;7.00;99.90
5870;DHT22;2961;47.702;9.410;2024-03-07T11:39:44;7.00;99.90
5870;DHT22;2961;47.702;9.410;2024-03-07T11:42:20;7.10;99.90
5870;DHT22;2961;47.702;9.410;2024-03-07T11:44:49;7.30;99.90
5870;DHT22;2961;47.702;9.410;2024-03-07T11:47:16;7.40;99.90
5870;DHT22;2961;47.702;9.410;2024-03-07T11:49:44;7.60;99.90
5870;DHT22;2961;47.702;9.410;2024-03-07T11:52:14;7.60;99.90
5870;DHT22;2961;47.702;9.410;2024-03-07T11:54:43;7.90;99.90
5870;DHT22;2961;47.702;9.410;2024-03-07T11:57:13;8.10;99.90
5870;DHT22;2961;47.702;9.410;2024-03-07T11:59:40;8.40;99.90
5870;DHT22;2961;47.702;9.410;2024-03-07T12:02:11;8.60;99.90
5870;DHT22;2961;47.702;9.410;2024-03-07T12:04:39;8.50;99.90
5870;DHT22;2961;47.702;9.410;2024-03-07T12:07:06;8.50;99.90
5870;DHT22;2961;47.702;9.410;2024-03-07T12:09:36;8.20;99.90
5870;DHT22;2961;47.702;9.410;2024-03-07T12:12:05;8.20;99.90
5870;DHT22;2961;47.702;9.410;2024-03-07T12:14:32;8.00;99.90
5870;DHT22;2961;47.702;9.410;2024-03-07T12:17:00;7.90;99.90
5870;DHT22;2961;47.702;9.410;2024-03-07T12:19:27;7.90;99.90
5870;DHT22;2961;47.702;9.410;2024-03-07T12:21:56;7.90;99.90
5870;DHT22;2961;47.702;9.410;2024-03-07T12:24:24;7.80;99.90
5870;DHT22;2961;47.702;9.410;2024-03-07T12:26:51;7.80;99.90
5870;DHT22;2961;47.702;9.410;2024-03-07T12:29:25;7.90;99.90
5870;DHT22;2961;47.702;9.410;2024-03-07T12:31:52;7.90;99.90
5870;DHT22;2961;47.702;9.410;2024-03-07T12:34:20;8.00;99.90
5870;DHT22;2961;47.702;9.410;2024-03-07T12:36:47;8.00;99.90
5870;DHT22;2961;47.702;9.410;2024-03-07T12:39:22;8.20;99.90
5870;DHT22;2961;47.702;9.410;2024-03-07T12:41:51;8.20;99.90
5870;DHT22;2961;47.702;9.410;2024-03-07T12:44:19;8.30;99.90
5870;DHT22;2961;47.702;9.410;2024-03-07T12:46:50;8.40;99.90
5870;DHT22;2961;47.702;9.410;2024-03-07T12:49:19;8.30;99.90
5870;DHT22;2961;47.702;9.410;2024-03-07T12:51:46;8.30;99.90
5870;DHT22;2961;47.702;9.410;2024-03-07T12:54:12;8.10;99.90
5870;DHT22;2961;47.702;9.410;2024-03-07T12:56:39;8.10;99.90
5870;DHT22;2961;47.702;9.410;2024-03-07T12:59:06;8.00;99.90
5870;DHT22;2961;47.702;9.410;2024-03-07T13:01:35;7.90;99.90
5870;DHT22;2961;47.702;9.410;2024-03-07T13:04:05;7.90;99.90
5870;DHT22;2961;47.702;9.410;2024-03-07T13:06:33;7.80;99.90
5870;DHT22;2961;47.702;9.410;2024-03-07T13:09:00;7.90;99.90
5870;DHT22;2961;47.702;9.410;2024-03-07T13:11:28;7.90;99.90
5870;DHT22;2961;47.702;9.410;2024-03-07T13:13:57;7.90;99.90
5870;DHT22;2961;47.702;9.410;2024-03-07T13:16:24;8.00;99.90
5870;DHT22;2961;47.702;9.410;2024-03-07T13:18:52;8.10;99.90
5870;DHT22;2961;47.702;9.410;2024-03-07T13:21:21;8.00;99.90
5870;DHT22;2961;47.702;9.410;2024-03-07T13:23:48;8.00;99.90
5870;DHT22;2961;47.702;9.410;2024-03-07T13:26:19;8.10;99.90
5870;DHT22;2961;47.702;9.410;2024-03-07T13:28:50;8.20;99.90
5870;DHT22;2961;47.702;9.410;2024-03-07T13:31:17;8.20;99.90
5870;DHT22;2961;47.702;9.410;2024-03-07T13:33:44;8.30;99.90
5870;DHT22;2961;47.702;9.410;2024-03-07T13:36:13;8.30;99.90
5870;DHT22;2961;47.702;9.410;2024-03-07T13:38:41;8.30;99.90
5870;DHT22;2961;47.702;9.410;2024-03-07T13:41:08;8.40;99.90
5870;DHT22;2961;47.702;9.410;2024-03-07T13:43:37;8.40;99.90
5870;DHT22;2961;47.702;9.410;2024-03-07T13:46:04;8.30;99.90
5870;DHT22;2961;47.702;9.410;2024-03-07T13:48:31;8.20;99.90
5870;DHT22;2961;47.702;9.410;2024-03-07T13:51:02;8.00;99.90
5870;DHT22;2961;47.702;9.410;2024-03-07T13:53:33;7.90;99.90
5870;DHT22;2961;47.702;9.410;2024-03-07T13:56:34;8.00;99.90
5870;DHT22;2961;47.702;9.410;2024-03-07T13:59:21;7.90;99.90
5870;DHT22;2961;47.702;9.410;2024-03-07T14:02:01;7.70;99.90
5870;DHT22;2961;47.702;9.410;2024-03-07T14:04:45;7.70;99.90
5870;DHT22;2961;47.702;9.410;2024-03-07T14:07:43;7.60;99.90
5870;DHT22;2961;47.702;9.410;2024-03-07T14:13:31;7.30;99.90
5870;DHT22;2961;47.702;9.410;2024-03-07T14:16:31;7.40;99.90
5870;DHT22;2961;47.702;9.410;2024-03-07T14:19:43;7.20;99.90
5870;DHT22;2961;47.702;9.410;2024-03-07T14:22:39;7.30;99.90
5870;DHT22;2961;47.702;9.410;2024-03-07T14:25:27;7.40;99.90
5870;DHT22;2961;47.702;9.410;2024-03-07T14:28:12;7.50;99.90
5870;DHT22;2961;47.702;9.410;2024-03-07T14:30:44;7.40;99.90
5870;DHT22;2961;47.702;9.410;2024-03-07T14:33:13;7.20;99.90
5870;DHT22;2961;47.702;9.410;2024-03-07T14:36:05;7.10;99.90
5870;DHT22;2961;47.702;9.410;2024-03-07T14:38:48;7.00;99.90
5870;DHT22;2961;47.702;9.410;2024-03-07T14:41:18;7.00;99.90
5870;DHT22;2961;47.702;9.410;2024-03-07T14:43:45;7.00;99.90
5870;DHT22;2961;47.702;9.410;2024-03-07T14:46:15;7.10;99.90
5870;DHT22;2961;47.702;9.410;2024-03-07T14:48:43;7.00;99.90
5870;DHT22;2961;47.702;9.410;2024-03-07T14:51:11;7.00;99.90
5870;DHT22;2961;47.702;9.410;2024-03-07T14:53:39;7.00;99.90
5870;DHT22;2961;47.702;9.410;2024-03-07T14:56:07;7.00;99.90
5870;DHT22;2961;47.702;9.410;2024-03-07T14:58:34;7.00;99.90
5870;DHT22;2961;47.702;9.410;2024-03-07T15:01:01;7.00;99.90
5870;DHT22;2961;47.702;9.410;2024-03-07T15:03:29;7.00;99.90
5870;DHT22;2961;47.702;9.410;2024-03-07T15:05:56;7.00;99.90
5870;DHT22;2961;47.702;9.410;2024-03-07T15:08:24;7.00;99.90
5870;DHT22;2961;47.702;9.410;2024-03-07T15:10:57;7.10;99.90
5870;DHT22;2961;47.702;9.410;2024-03-07T15:13:25;7.00;99.90
5870;DHT22;2961;47.702;9.410;2024-03-07T15:15:52;7.00;99.90
5870;DHT22;2961;47.702;9.410;2024-03-07T15:18:20;6.90;99.90
5870;DHT22;2961;47.702;9.410;2024-03-07T15:20:49;6.80;99.90
5870;DHT22;2961;47.702;9.410;2024-03-07T15:23:15;6.80;99.90
5870;DHT22;2961;47.702;9.410;2024-03-07T15:25:42;6.80;99.90
5870;DHT22;2961;47.702;9.410;2024-03-07T15:28:09;6.80;99.90
5870;DHT22;2961;47.702;9.410;2024-03-07T15:30:36;6.90;99.90
5870;DHT22;2961;47.702;9.410;2024-03-07T15:33:05;6.90;99.90
5870;DHT22;2961;47.702;9.410;2024-03-07T15:35:32;6.90;99.90
5870;DHT22;2961;47.702;9.410;2024-03-07T15:38:01;6.90;99.90
5870;DHT22;2961;47.702;9.410;2024-03-07T15:40:31;7.00;99.90
5870;DHT22;2961;47.702;9.410;2024-03-07T15:42:59;7.00;99.90
5870;DHT22;2961;47.702;9.410;2024-03-07T15:45:27;7.00;99.90
5870;DHT22;2961;47.702;9.410;2024-03-07T15:47:55;7.00;99.90
5870;DHT22;2961;47.702;9.410;2024-03-07T15:50:24;7.00;99.90
5870;DHT22;2961;47.702;9.410;2024-03-07T15:52:55;7.00;99.90
5870;DHT22;2961;47.702;9.410;2024-03-07T15:55:24;6.90;99.90
5870;DHT22;2961;47.702;9.410;2024-03-07T15:57:52;6.90;99.90
5870;DHT22;2961;47.702;9.410;2024-03-07T16:00:20;6.70;99.90
5870;DHT22;2961;47.702;9.410;2024-03-07T16:02:52;6.70;99.90
5870;DHT22;2961;47.702;9.410;2024-03-07T16:05:41;6.60;99.90
5870;DHT22;2961;47.702;9.410;2024-03-07T16:08:09;6.60;99.90
5870;DHT22;2961;47.702;9.410;2024-03-07T16:10:39;6.70;99.90
5870;DHT22;2961;47.702;9.410;2024-03-07T16:13:07;6.60;99.90
5870;DHT22;2961;47.702;9.410;2024-03-07T16:15:35;6.60;99.90
5870;DHT22;2961;47.702;9.410;2024-03-07T16:18:02;6.70;99.90
5870;DHT22;2961;47.702;9.410;2024-03-07T16:20:29;6.60;99.90
5870;DHT22;2961;47.702;9.410;2024-03-07T16:22:56;6.70;99.90
5870;DHT22;2961;47.702;9.410;2024-03-07T16:25:25;6.60;99.90
5870;DHT22;2961;47.702;9.410;2024-03-07T16:27:54;6.50;99.90
5870;DHT22;2961;47.702;9.410;2024-03-07T16:30:22;6.50;99.90